sensor_id;sensor_type;location;lat;lon;timestamp;temperature;humidity
22130;DHT22;11231;50.746;4.272;2023-04-15T00:01:09;11.30;99.90
22130;DHT22;11231;50.746;4.272;2023-04-15T00:03:34;11.30;99.90
22130;DHT22;11231;50.746;4.272;2023-04-15T00:06:04;11.20;99.90
22130;DHT22;11231;50.746;4.272;2023-04-15T00:08:30;11.20;99.90
22130;DHT22;11231;50.746;4.272;2023-04-15T00:10:56;11.30;99.90
22130;DHT22;11231;50.746;4.272;2023-04-15T00:13:27;11.40;99.90
22130;DHT22;11231;50.746;4.272;2023-04-15T00:15:52;11.50;99.90
22130;DHT22;11231;50.746;4.272;2023-04-15T00:18:19;11.60;99.90
22130;DHT22;11231;50.746;4.272;2023-04-15T00:20:45;11.60;99.90
22130;DHT22;11231;50.746;4.272;2023-04-15T00:23:12;11.70;99.90
22130;DHT22;11231;50.746;4.272;2023-04-15T00:25:39;11.70;99.90
22130;DHT22;11231;50.746;4.272;2023-04-15T00:28:05;11.60;99.90
22130;DHT22;11231;50.746;4.272;2023-04-15T00:30:35;11.70;99.90
22130;DHT22;11231;50.746;4.272;2023-04-15T00:33:01;11.70;99.90
22130;DHT22;11231;50.746;4.272;2023-04-15T00:35:28;11.70;99.90
22130;DHT22;11231;50.746;4.272;2023-04-15T00:37:59;11.70;99.90
22130;DHT22;11231;50.746;4.272;2023-04-15T00:40:26;11.60;99.90
22130;DHT22;11231;50.746;4.272;2023-04-15T00:42:52;11.70;99.90
22130;DHT22;11231;50.746;4.272;2023-04-15T00:45:20;11.60;99.90
22130;DHT22;11231;50.746;4.272;2023-04-15T00:47:47;11.50;99.90
22130;DHT22;11231;50.746;4.272;2023-04-15T00:50:14;11.20;99.90
22130;DHT22;11231;50.746;4.272;2023-04-15T00:52:41;11.10;99.90
22130;DHT22;11231;50.746;4.272;2023-04-15T00:55:08;11.10;99.90
22130;DHT22;11231;50.746;4.272;2023-04-15T00:57:34;11.10;99.90
22130;DHT22;11231;50.746;4.272;2023-04-15T01:00:01;11.10;99.90
22130;DHT22;11231;50.746;4.272;2023-04-15T01:02:30;11.10;99.90
22130;DHT22;11231;50.746;4.272;2023-04-15T01:04:57;11.10;99.90
22130;DHT22;11231;50.746;4.272;2023-04-15T01:07:23;11.00;99.90
22130;DHT22;11231;50.746;4.272;2023-04-15T01:09:49;10.80;99.90
22130;DHT22;11231;50.746;4.272;2023-04-15T01:12:16;10.90;99.90
22130;DHT22;11231;50.746;4.272;2023-04-15T01:14:43;10.90;99.90
22130;DHT22;11231;50.746;4.272;2023-04-15T01:17:10;11.00;99.90
22130;DHT22;11231;50.746;4.272;2023-04-15T01:19:40;11.10;99.90
22130;DHT22;11231;50.746;4.272;2023-04-15T01:22:10;11.20;99.90
22130;DHT22;11231;50.746;4.272;2023-04-15T01:24:38;11.20;99.90
22130;DHT22;11231;50.746;4.272;2023-04-15T01:27:06;11.20;99.90
22130;DHT22;11231;50.746;4.272;2023-04-15T01:29:54;11.30;99.90
22130;DHT22;11231;50.746;4.272;2023-04-15T01:32:22;11.40;99.90
22130;DHT22;11231;50.746;4.272;2023-04-15T01:34:52;11.50;99.90
22130;DHT22;11231;50.746;4.272;2023-04-15T01:37:18;11.50;99.90
22130;DHT22;11231;50.746;4.272;2023-04-15T01:39:45;11.40;99.90
22130;DHT22;11231;50.746;4.272;2023-04-15T01:42:10;11.40;99.90
22130;DHT22;11231;50.746;4.272;2023-04-15T01:44:37;11.40;99.90
22130;DHT22;11231;50.746;4.272;2023-04-15T01:47:04;11.30;99.90
22130;DHT22;11231;50.746;4.272;2023-04-15T01:49:35;11.20;99.90
22130;DHT22;11231;50.746;4.272;2023-04-15T01:52:02;11.20;99.90
22130;DHT22;11231;50.746;4.272;2023-04-15T01:54:28;11.10;99.90
22130;DHT22;11231;50.746;4.272;2023-04-15T01:56:55;11.10;99.90
22130;DHT22;11231;50.746;4.272;2023-04-15T01:59:22;11.20;99.90
22130;DHT22;11231;50.746;4.272;2023-04-15T02:01:48;11.20;99.90
22130;DHT22;11231;50.746;4.272;2023-04-15T02:04:14;11.30;99.90
22130;DHT22;11231;50.746;4.272;2023-04-15T02:06:43;11.30;99.90
22130;DHT22;11231;50.746;4.272;2023-04-15T02:09:10;11.30;99.90
22130;DHT22;11231;50.746;4.272;2023-04-15T02:11:36;11.40;99.90
22130;DHT22;11231;50.746;4.272;2023-04-15T02:14:03;11.40;99.90
22130;DHT22;11231;50.746;4.272;2023-04-15T02:16:30;11.30;99.90
22130;DHT22;11231;50.746;4.272;2023-04-15T02:18:59;11.30;99.90
22130;DHT22;11231;50.746;4.272;2023-04-15T02:21:26;11.30;99.90
22130;DHT22;11231;50.746;4.272;2023-04-15T02:23:52;11.20;99.90
22130;DHT22;11231;50.746;4.272;2023-04-15T02:26:22;11.30;99.90
22130;DHT22;11231;50.746;4.272;2023-04-15T02:28:50;11.40;99.90
22130;DHT22;11231;50.746;4.272;2023-04-15T02:31:16;11.30;99.90
22130;DHT22;11231;50.746;4.272;2023-04-15T02:33:42;11.30;99.90
22130;DHT22;11231;50.746;4.272;2023-04-15T02:36:09;11.20;99.90
22130;DHT22;11231;50.746;4.272;2023-04-15T02:38:37;11.30;99.90
22130;DHT22;11231;50.746;4.272;2023-04-15T02:41:06;11.40;99.90
22130;DHT22;11231;50.746;4.272;2023-04-15T02:43:35;11.50;99.90
22130;DHT22;11231;50.746;4.272;2023-04-15T02:46:01;11.50;99.90
22130;DHT22;11231;50.746;4.272;2023-04-15T02:48:29;11.50;99.90
22130;DHT22;11231;50.746;4.272;2023-04-15T02:51:15;11.50;99.90
22130;DHT22;11231;50.746;4.272;2023-04-15T02:53:45;11.50;99.90
22130;DHT22;11231;50.746;4.272;2023-04-15T02:56:11;11.60;99.90
22130;DHT22;11231;50.746;4.272;2023-04-15T02:58:38;11.60;99.90
22130;DHT22;11231;50.746;4.272;2023-04-15T03:01:04;11.60;99.90
22130;DHT22;11231;50.746;4.272;2023-04-15T03:03:30;11.50;99.90
22130;DHT22;11231;50.746;4.272;2023-04-15T03:05:56;11.30;99.90
22130;DHT22;11231;50.746;4.272;2023-04-15T03:08:21;11.30;99.90
22130;DHT22;11231;50.746;4.272;2023-04-15T03:10:47;11.30;99.90
22130;DHT22;11231;50.746;4.272;2023-04-15T03:13:15;11.30;99.90
22130;DHT22;11231;50.746;4.272;2023-04-15T03:15:45;11.40;99.90
22130;DHT22;11231;50.746;4.272;2023-04-15T03:18:12;11.40;99.90
22130;DHT22;11231;50.746;4.272;2023-04-15T03:20:40;11.20;99.90
22130;DHT22;11231;50.746;4.272;2023-04-15T03:23:07;11.30;99.90
22130;DHT22;11231;50.746;4.272;2023-04-15T03:25:33;11.20;99.90
22130;DHT22;11231;50.746;4.272;2023-04-15T03:28:04;11.20;99.90
22130;DHT22;11231;50.746;4.272;2023-04-15T03:30:31;11.10;99.90
22130;DHT22;11231;50.746;4.272;2023-04-15T03:32:59;10.90;99.90
22130;DHT22;11231;50.746;4.272;2023-04-15T03:35:25;10.60;99.90
22130;DHT22;11231;50.746;4.272;2023-04-15T03:37:51;10.50;99.90
22130;DHT22;11231;50.746;4.272;2023-04-15T03:40:17;10.70;99.90
22130;DHT22;11231;50.746;4.272;2023-04-15T03:42:43;10.70;99.90
22130;DHT22;11231;50.746;4.272;2023-04-15T03:45:09;10.70;99.90
22130;DHT22;11231;50.746;4.272;2023-04-15T03:47:35;10.80;99.90
22130;DHT22;11231;50.746;4.272;2023-04-15T03:50:01;10.90;99.90
22130;DHT22;11231;50.746;4.272;2023-04-15T03:52:26;11.00;99.90
22130;DHT22;11231;50.746;4.272;2023-04-15T03:54:54;11.00;99.90
22130;DHT22;11231;50.746;4.272;2023-04-15T03:57:21;10.70;99.90
22130;DHT22;11231;50.746;4.272;2023-04-15T03:59:55;10.50;99.90
22130;DHT22;11231;50.746;4.272;2023-04-15T04:02:25;10.40;99.90
22130;DHT22;11231;50.746;4.272;2023-04-15T04:04:57;10.40;99.90
22130;DHT22;11231;50.746;4.272;2023-04-15T04:07:27;10.00;99.90
22130;DHT22;11231;50.746;4.272;2023-04-15T04:09:53;9.60;99.90
22130;DHT22;11231;50.746;4.272;2023-04-15T04:12:19;9.40;99.90
22130;DHT22;11231;50.746;4.272;2023-04-15T04:14:46;9.40;99.90
22130;DHT22;11231;50.746;4.272;2023-04-15T04:17:12;9.40;99.90
22130;DHT22;11231;50.746;4.272;2023-04-15T04:19:38;9.50;99.90
22130;DHT22;11231;50.746;4.272;2023-04-15T04:22:04;9.50;99.90
22130;DHT22;11231;50.746;4.272;2023-04-15T04:24:30;9.50;99.90
22130;DHT22;11231;50.746;4.272;2023-04-15T04:26:57;9.60;99.90
22130;DHT22;11231;50.746;4.272;2023-04-15T04:29:23;9.60;99.90
22130;DHT22;11231;50.746;4.272;2023-04-15T04:31:48;9.60;99.90
22130;DHT22;11231;50.746;4.272;2023-04-15T04:34:15;9.70;99.90
22130;DHT22;11231;50.746;4.272;2023-04-15T04:36:40;9.60;99.90
22130;DHT22;11231;50.746;4.272;2023-04-15T04:39:07;9.40;99.90
22130;DHT22;11231;50.746;4.272;2023-04-15T04:41:33;9.40;99.90
22130;DHT22;11231;50.746;4.272;2023-04-15T04:43:59;9.50;99.90
22130;DHT22;11231;50.746;4.272;2023-04-15T04:46:24;9.60;99.90
22130;DHT22;11231;50.746;4.272;2023-04-15T04:48:50;9.70;99.90
22130;DHT22;11231;50.746;4.272;2023-04-15T04:51:16;9.80;99.90
22130;DHT22;11231;50.746;4.272;2023-04-15T04:53:42;9.80;99.90
22130;DHT22;11231;50.746;4.272;2023-04-15T04:56:08;9.90;99.90
22130;DHT22;11231;50.746;4.272;2023-04-15T04:58:34;10.00;99.90
22130;DHT22;11231;50.746;4.272;2023-04-15T05:01:00;10.10;99.90
22130;DHT22;11231;50.746;4.272;2023-04-15T05:03:26;10.10;99.90
22130;DHT22;11231;50.746;4.272;2023-04-15T05:05:51;10.10;99.90
22130;DHT22;11231;50.746;4.272;2023-04-15T05:08:17;10.20;99.90
22130;DHT22;11231;50.746;4.272;2023-04-15T05:10:43;10.30;99.90
22130;DHT22;11231;50.746;4.272;2023-04-15T05:13:08;10.40;99.90
22130;DHT22;11231;50.746;4.272;2023-04-15T05:15:34;10.50;99.90
22130;DHT22;11231;50.746;4.272;2023-04-15T05:18:03;10.60;99.90
22130;DHT22;11231;50.746;4.272;2023-04-15T05:20:29;10.70;99.90
22130;DHT22;11231;50.746;4.272;2023-04-15T05:22:55;10.80;99.90
22130;DHT22;11231;50.746;4.272;2023-04-15T05:25:20;10.80;99.90
22130;DHT22;11231;50.746;4.272;2023-04-15T05:27:46;10.90;99.90
22130;DHT22;11231;50.746;4.272;2023-04-15T05:30:12;10.90;99.90
22130;DHT22;11231;50.746;4.272;2023-04-15T05:32:38;10.90;99.90
22130;DHT22;11231;50.746;4.272;2023-04-15T05:35:05;11.00;99.90
22130;DHT22;11231;50.746;4.272;2023-04-15T05:37:31;11.00;99.90
22130;DHT22;11231;50.746;4.272;2023-04-15T05:39:56;11.10;99.90
22130;DHT22;11231;50.746;4.272;2023-04-15T05:42:22;11.20;99.90
22130;DHT22;11231;50.746;4.272;2023-04-15T05:44:48;11.20;99.90
22130;DHT22;11231;50.746;4.272;2023-04-15T05:47:13;11.20;99.90
22130;DHT22;11231;50.746;4.272;2023-04-15T05:49:39;11.20;99.90
22130;DHT22;11231;50.746;4.272;2023-04-15T05:52:05;11.20;99.90
22130;DHT22;11231;50.746;4.272;2023-04-15T05:54:31;11.20;99.90
22130;DHT22;11231;50.746;4.272;2023-04-15T05:56:56;11.20;99.90
22130;DHT22;11231;50.746;4.272;2023-04-15T05:59:22;11.00;99.90
22130;DHT22;11231;50.746;4.272;2023-04-15T06:01:48;10.90;99.90
22130;DHT22;11231;50.746;4.272;2023-04-15T06:04:14;10.80;99.90
22130;DHT22;11231;50.746;4.272;2023-04-15T06:06:41;10.60;99.90
22130;DHT22;11231;50.746;4.272;2023-04-15T06:09:07;10.50;99.90
22130;DHT22;11231;50.746;4.272;2023-04-15T06:11:32;10.40;99.90
22130;DHT22;11231;50.746;4.272;2023-04-15T06:13:58;10.50;99.90
22130;DHT22;11231;50.746;4.272;2023-04-15T06:16:24;10.70;99.90
22130;DHT22;11231;50.746;4.272;2023-04-15T06:18:50;10.70;99.90
22130;DHT22;11231;50.746;4.272;2023-04-15T06:21:15;11.00;99.90
22130;DHT22;11231;50.746;4.272;2023-04-15T06:23:41;11.20;99.90
22130;DHT22;11231;50.746;4.272;2023-04-15T06:26:07;11.40;99.90
22130;DHT22;11231;50.746;4.272;2023-04-15T06:28:33;11.60;99.90
22130;DHT22;11231;50.746;4.272;2023-04-15T06:30:58;11.80;99.90
22130;DHT22;11231;50.746;4.272;2023-04-15T06:33:25;12.00;99.90
22130;DHT22;11231;50.746;4.272;2023-04-15T06:35:51;12.10;99.90
22130;DHT22;11231;50.746;4.272;2023-04-15T06:38:17;12.30;99.90
22130;DHT22;11231;50.746;4.272;2023-04-15T06:40:43;12.60;99.90
22130;DHT22;11231;50.746;4.272;2023-04-15T06:43:08;12.90;99.90
22130;DHT22;11231;50.746;4.272;2023-04-15T06:45:34;13.20;99.90
22130;DHT22;11231;50.746;4.272;2023-04-15T06:48:00;13.70;99.90
22130;DHT22;11231;50.746;4.272;2023-04-15T06:50:26;14.10;99.90
22130;DHT22;11231;50.746;4.272;2023-04-15T06:52:53;14.60;99.90
22130;DHT22;11231;50.746;4.272;2023-04-15T06:55:19;15.10;99.90
22130;DHT22;11231;50.746;4.272;2023-04-15T06:57:45;15.60;99.90
22130;DHT22;11231;50.746;4.272;2023-04-15T07:00:11;16.00;99.90
22130;DHT22;11231;50.746;4.272;2023-04-15T07:02:37;16.50;99.90
22130;DHT22;11231;50.746;4.272;2023-04-15T07:05:03;16.50;99.90
22130;DHT22;11231;50.746;4.272;2023-04-15T07:07:29;15.70;99.90
22130;DHT22;11231;50.746;4.272;2023-04-15T07:09:55;15.30;99.90
22130;DHT22;11231;50.746;4.272;2023-04-15T07:12:20;14.80;99.90
22130;DHT22;11231;50.746;4.272;2023-04-15T07:14:46;14.90;99.90
22130;DHT22;11231;50.746;4.272;2023-04-15T07:17:12;15.30;99.90
22130;DHT22;11231;50.746;4.272;2023-04-15T07:19:38;15.40;99.90
22130;DHT22;11231;50.746;4.272;2023-04-15T07:22:03;15.70;99.90
22130;DHT22;11231;50.746;4.272;2023-04-15T07:24:29;15.90;99.90
22130;DHT22;11231;50.746;4.272;2023-04-15T07:26:55;15.70;99.90
22130;DHT22;11231;50.746;4.272;2023-04-15T07:29:23;15.80;99.90
22130;DHT22;11231;50.746;4.272;2023-04-15T07:31:49;16.40;99.90
22130;DHT22;11231;50.746;4.272;2023-04-15T07:34:15;17.40;99.90
22130;DHT22;11231;50.746;4.272;2023-04-15T07:36:41;18.70;99.90
22130;DHT22;11231;50.746;4.272;2023-04-15T07:39:07;19.40;99.90
22130;DHT22;11231;50.746;4.272;2023-04-15T07:41:33;20.30;99.90
22130;DHT22;11231;50.746;4.272;2023-04-15T07:43:59;21.60;99.90
22130;DHT22;11231;50.746;4.272;2023-04-15T07:46:25;20.80;99.90
22130;DHT22;11231;50.746;4.272;2023-04-15T07:48:52;21.00;99.90
22130;DHT22;11231;50.746;4.272;2023-04-15T07:51:21;21.50;99.90
22130;DHT22;11231;50.746;4.272;2023-04-15T07:53:48;21.80;99.90
22130;DHT22;11231;50.746;4.272;2023-04-15T07:56:15;21.70;99.90
22130;DHT22;11231;50.746;4.272;2023-04-15T07:58:40;21.60;99.90
22130;DHT22;11231;50.746;4.272;2023-04-15T08:01:07;21.80;99.90
22130;DHT22;11231;50.746;4.272;2023-04-15T08:03:33;21.70;99.90
22130;DHT22;11231;50.746;4.272;2023-04-15T08:05:58;21.40;99.90
22130;DHT22;11231;50.746;4.272;2023-04-15T08:08:24;21.10;99.90
22130;DHT22;11231;50.746;4.272;2023-04-15T08:10:50;20.80;99.90
22130;DHT22;11231;50.746;4.272;2023-04-15T08:13:17;20.70;99.90
22130;DHT22;11231;50.746;4.272;2023-04-15T08:15:43;20.90;99.90
22130;DHT22;11231;50.746;4.272;2023-04-15T08:18:08;21.00;99.90
22130;DHT22;11231;50.746;4.272;2023-04-15T08:20:34;20.10;99.90
22130;DHT22;11231;50.746;4.272;2023-04-15T08:23:00;19.80;99.90
22130;DHT22;11231;50.746;4.272;2023-04-15T08:25:25;20.00;99.90
22130;DHT22;11231;50.746;4.272;2023-04-15T08:27:54;20.10;99.90
22130;DHT22;11231;50.746;4.272;2023-04-15T08:30:20;19.00;99.90
22130;DHT22;11231;50.746;4.272;2023-04-15T08:32:46;18.30;99.90
22130;DHT22;11231;50.746;4.272;2023-04-15T08:35:12;18.00;99.90
22130;DHT22;11231;50.746;4.272;2023-04-15T08:37:38;17.80;99.90
22130;DHT22;11231;50.746;4.272;2023-04-15T08:40:04;17.60;99.90
22130;DHT22;11231;50.746;4.272;2023-04-15T08:42:31;17.60;99.90
22130;DHT22;11231;50.746;4.272;2023-04-15T08:44:59;17.90;99.90
22130;DHT22;11231;50.746;4.272;2023-04-15T08:47:29;18.20;99.90
22130;DHT22;11231;50.746;4.272;2023-04-15T08:49:59;18.40;99.90
22130;DHT22;11231;50.746;4.272;2023-04-15T08:52:27;18.70;99.90
22130;DHT22;11231;50.746;4.272;2023-04-15T08:54:57;18.40;99.90
22130;DHT22;11231;50.746;4.272;2023-04-15T08:57:26;17.80;99.90
22130;DHT22;11231;50.746;4.272;2023-04-15T08:59:56;17.70;99.90
22130;DHT22;11231;50.746;4.272;2023-04-15T09:02:23;18.00;99.90
22130;DHT22;11231;50.746;4.272;2023-04-15T09:04:50;17.90;99.90
22130;DHT22;11231;50.746;4.272;2023-04-15T09:07:16;17.80;99.90
22130;DHT22;11231;50.746;4.272;2023-04-15T09:09:41;17.40;99.90
22130;DHT22;11231;50.746;4.272;2023-04-15T09:12:08;17.50;99.90
22130;DHT22;11231;50.746;4.272;2023-04-15T09:14:35;17.60;99.90
22130;DHT22;11231;50.746;4.272;2023-04-15T09:17:02;17.60;99.90
22130;DHT22;11231;50.746;4.272;2023-04-15T09:19:29;17.50;99.90
22130;DHT22;11231;50.746;4.272;2023-04-15T09:21:57;17.50;99.90
22130;DHT22;11231;50.746;4.272;2023-04-15T09:24:23;17.50;99.90
22130;DHT22;11231;50.746;4.272;2023-04-15T09:26:53;17.90;99.90
22130;DHT22;11231;50.746;4.272;2023-04-15T09:29:23;18.50;99.90
22130;DHT22;11231;50.746;4.272;2023-04-15T09:31:49;19.00;99.90
22130;DHT22;11231;50.746;4.272;2023-04-15T09:34:15;19.50;99.90
22130;DHT22;11231;50.746;4.272;2023-04-15T09:39:13;20.40;99.90
22130;DHT22;11231;50.746;4.272;2023-04-15T09:41:39;20.80;99.90
22130;DHT22;11231;50.746;4.272;2023-04-15T09:44:05;21.30;99.90
22130;DHT22;11231;50.746;4.272;2023-04-15T09:46:41;21.80;99.90
22130;DHT22;11231;50.746;4.272;2023-04-15T09:49:09;21.20;99.90
22130;DHT22;11231;50.746;4.272;2023-04-15T09:51:35;21.30;99.90
22130;DHT22;11231;50.746;4.272;2023-04-15T09:54:01;21.40;99.90
22130;DHT22;11231;50.746;4.272;2023-04-15T09:56:37;21.60;99.90
22130;DHT22;11231;50.746;4.272;2023-04-15T09:59:06;22.30;99.90
22130;DHT22;11231;50.746;4.272;2023-04-15T10:01:32;22.80;99.90
22130;DHT22;11231;50.746;4.272;2023-04-15T10:04:02;22.40;97.20
22130;DHT22;11231;50.746;4.272;2023-04-15T10:06:29;21.80;92.70
22130;DHT22;11231;50.746;4.272;2023-04-15T10:08:56;21.00;91.40
22130;DHT22;11231;50.746;4.272;2023-04-15T10:11:23;20.90;91.60
22130;DHT22;11231;50.746;4.272;2023-04-15T10:13:50;21.00;92.00
22130;DHT22;11231;50.746;4.272;2023-04-15T10:16:19;20.70;92.20
22130;DHT22;11231;50.746;4.272;2023-04-15T10:18:47;20.20;92.60
22130;DHT22;11231;50.746;4.272;2023-04-15T10:21:15;20.40;93.50
22130;DHT22;11231;50.746;4.272;2023-04-15T10:23:44;20.60;93.60
22130;DHT22;11231;50.746;4.272;2023-04-15T10:26:11;20.80;93.80
22130;DHT22;11231;50.746;4.272;2023-04-15T10:28:42;21.40;93.00
22130;DHT22;11231;50.746;4.272;2023-04-15T10:31:11;21.70;92.80
22130;DHT22;11231;50.746;4.272;2023-04-15T10:33:38;21.30;88.90
22130;DHT22;11231;50.746;4.272;2023-04-15T10:36:04;20.80;90.70
22130;DHT22;11231;50.746;4.272;2023-04-15T10:38:37;20.80;90.80
22130;DHT22;11231;50.746;4.272;2023-04-15T10:43:59;21.90;89.20
22130;DHT22;11231;50.746;4.272;2023-04-15T10:49:23;22.90;90.30
22130;DHT22;11231;50.746;4.272;2023-04-15T10:51:56;23.10;90.80
22130;DHT22;11231;50.746;4.272;2023-04-15T10:59:38;22.10;86.90
22130;DHT22;11231;50.746;4.272;2023-04-15T11:03:04;22.10;90.20
22130;DHT22;11231;50.746;4.272;2023-04-15T11:05:52;22.20;85.70
22130;DHT22;11231;50.746;4.272;2023-04-15T11:08:18;22.00;87.90
22130;DHT22;11231;50.746;4.272;2023-04-15T11:15:40;23.90;82.20
22130;DHT22;11231;50.746;4.272;2023-04-15T11:20:36;21.40;83.20
22130;DHT22;11231;50.746;4.272;2023-04-15T11:23:03;20.80;88.10
22130;DHT22;11231;50.746;4.272;2023-04-15T11:25:31;21.10;85.80
22130;DHT22;11231;50.746;4.272;2023-04-15T11:27:59;21.30;83.80
22130;DHT22;11231;50.746;4.272;2023-04-15T11:30:26;21.70;82.20
22130;DHT22;11231;50.746;4.272;2023-04-15T11:32:56;21.90;82.10
22130;DHT22;11231;50.746;4.272;2023-04-15T11:35:22;22.90;82.00
22130;DHT22;11231;50.746;4.272;2023-04-15T11:37:49;23.80;77.90
22130;DHT22;11231;50.746;4.272;2023-04-15T11:40:16;22.90;72.00
22130;DHT22;11231;50.746;4.272;2023-04-15T11:42:44;22.10;73.40
22130;DHT22;11231;50.746;4.272;2023-04-15T11:45:13;22.00;73.70
22130;DHT22;11231;50.746;4.272;2023-04-15T11:47:42;21.80;70.50
22130;DHT22;11231;50.746;4.272;2023-04-15T11:50:21;21.80;74.30
22130;DHT22;11231;50.746;4.272;2023-04-15T11:52:58;22.40;70.20
22130;DHT22;11231;50.746;4.272;2023-04-15T11:55:25;22.50;69.90
22130;DHT22;11231;50.746;4.272;2023-04-15T12:00:38;22.50;75.30
22130;DHT22;11231;50.746;4.272;2023-04-15T12:03:20;22.20;73.00
22130;DHT22;11231;50.746;4.272;2023-04-15T12:11:16;22.40;71.80
22130;DHT22;11231;50.746;4.272;2023-04-15T12:13:49;21.60;64.30
22130;DHT22;11231;50.746;4.272;2023-04-15T12:16:21;21.40;62.30
22130;DHT22;11231;50.746;4.272;2023-04-15T12:18:51;21.30;65.60
22130;DHT22;11231;50.746;4.272;2023-04-15T12:21:25;21.40;55.00
22130;DHT22;11231;50.746;4.272;2023-04-15T12:23:53;21.70;57.50
22130;DHT22;11231;50.746;4.272;2023-04-15T12:26:30;21.70;59.80
22130;DHT22;11231;50.746;4.272;2023-04-15T12:29:04;22.30;62.80
22130;DHT22;11231;50.746;4.272;2023-04-15T12:31:31;21.10;59.80
22130;DHT22;11231;50.746;4.272;2023-04-15T12:33:58;20.80;59.00
22130;DHT22;11231;50.746;4.272;2023-04-15T12:36:25;20.20;63.90
22130;DHT22;11231;50.746;4.272;2023-04-15T12:38:51;19.70;69.20
22130;DHT22;11231;50.746;4.272;2023-04-15T12:41:17;19.20;71.30
22130;DHT22;11231;50.746;4.272;2023-04-15T12:43:44;18.80;71.20
22130;DHT22;11231;50.746;4.272;2023-04-15T12:46:11;18.50;72.70
22130;DHT22;11231;50.746;4.272;2023-04-15T12:48:37;18.40;70.80
22130;DHT22;11231;50.746;4.272;2023-04-15T12:51:03;18.30;72.00
22130;DHT22;11231;50.746;4.272;2023-04-15T12:53:28;18.00;69.30
22130;DHT22;11231;50.746;4.272;2023-04-15T12:55:54;18.00;74.10
22130;DHT22;11231;50.746;4.272;2023-04-15T12:58:20;17.80;70.70
22130;DHT22;11231;50.746;4.272;2023-04-15T13:00:46;17.70;71.30
22130;DHT22;11231;50.746;4.272;2023-04-15T13:03:13;17.50;69.40
22130;DHT22;11231;50.746;4.272;2023-04-15T13:05:39;17.40;71.80
22130;DHT22;11231;50.746;4.272;2023-04-15T13:08:05;17.40;71.80
22130;DHT22;11231;50.746;4.272;2023-04-15T13:10:31;17.30;73.00
22130;DHT22;11231;50.746;4.272;2023-04-15T13:12:57;17.40;73.70
22130;DHT22;11231;50.746;4.272;2023-04-15T13:15:23;17.20;73.10
22130;DHT22;11231;50.746;4.272;2023-04-15T13:17:50;17.10;74.20
22130;DHT22;11231;50.746;4.272;2023-04-15T13:20:16;17.20;77.20
22130;DHT22;11231;50.746;4.272;2023-04-15T13:22:42;17.30;78.00
22130;DHT22;11231;50.746;4.272;2023-04-15T13:25:08;17.30;77.70
22130;DHT22;11231;50.746;4.272;2023-04-15T13:27:34;17.30;76.20
22130;DHT22;11231;50.746;4.272;2023-04-15T13:30:00;17.40;74.80
22130;DHT22;11231;50.746;4.272;2023-04-15T13:32:25;17.40;76.90
22130;DHT22;11231;50.746;4.272;2023-04-15T13:34:51;17.40;75.10
22130;DHT22;11231;50.746;4.272;2023-04-15T13:37:17;17.20;77.10
22130;DHT22;11231;50.746;4.272;2023-04-15T13:39:43;17.20;78.30
22130;DHT22;11231;50.746;4.272;2023-04-15T13:42:08;17.20;79.20
22130;DHT22;11231;50.746;4.272;2023-04-15T13:44:34;17.30;79.50
22130;DHT22;11231;50.746;4.272;2023-04-15T13:47:00;17.20;79.70
22130;DHT22;11231;50.746;4.272;2023-04-15T13:49:26;17.40;83.40
22130;DHT22;11231;50.746;4.272;2023-04-15T13:51:51;17.60;83.90
22130;DHT22;11231;50.746;4.272;2023-04-15T13:54:17;17.40;83.90
22130;DHT22;11231;50.746;4.272;2023-04-15T13:56:43;17.40;82.10
22130;DHT22;11231;50.746;4.272;2023-04-15T13:59:09;17.30;81.80
22130;DHT22;11231;50.746;4.272;2023-04-15T14:01:34;17.30;82.00
22130;DHT22;11231;50.746;4.272;2023-04-15T14:04:00;17.20;79.90
22130;DHT22;11231;50.746;4.272;2023-04-15T14:06:27;16.90;79.30
22130;DHT22;11231;50.746;4.272;2023-04-15T14:08:53;17.00;81.30
22130;DHT22;11231;50.746;4.272;2023-04-15T14:11:19;17.00;83.50
22130;DHT22;11231;50.746;4.272;2023-04-15T14:13:45;16.80;79.40
22130;DHT22;11231;50.746;4.272;2023-04-15T14:16:10;16.80;84.10
22130;DHT22;11231;50.746;4.272;2023-04-15T14:18:36;16.70;83.20
22130;DHT22;11231;50.746;4.272;2023-04-15T14:21:03;16.80;84.40
22130;DHT22;11231;50.746;4.272;2023-04-15T14:23:29;16.90;88.90
22130;DHT22;11231;50.746;4.272;2023-04-15T14:25:55;16.80;92.00
22130;DHT22;11231;50.746;4.272;2023-04-15T14:28:21;16.90;93.20
22130;DHT22;11231;50.746;4.272;2023-04-15T14:30:47;17.10;92.40
22130;DHT22;11231;50.746;4.272;2023-04-15T14:33:12;17.30;92.20
22130;DHT22;11231;50.746;4.272;2023-04-15T14:35:38;17.20;91.40
22130;DHT22;11231;50.746;4.272;2023-04-15T14:38:04;17.00;90.70
22130;DHT22;11231;50.746;4.272;2023-04-15T14:40:32;17.10;93.20
22130;DHT22;11231;50.746;4.272;2023-04-15T14:42:58;17.20;92.70
22130;DHT22;11231;50.746;4.272;2023-04-15T14:45:23;17.10;90.80
22130;DHT22;11231;50.746;4.272;2023-04-15T14:47:49;16.90;94.50
22130;DHT22;11231;50.746;4.272;2023-04-15T14:50:16;17.20;94.30
22130;DHT22;11231;50.746;4.272;2023-04-15T14:52:42;17.20;94.20
22130;DHT22;11231;50.746;4.272;2023-04-15T14:55:09;17.20;92.80
22130;DHT22;11231;50.746;4.272;2023-04-15T14:57:39;17.20;92.80
22130;DHT22;11231;50.746;4.272;2023-04-15T15:00:06;16.80;91.40
22130;DHT22;11231;50.746;4.272;2023-04-15T15:02:33;16.60;91.70
22130;DHT22;11231;50.746;4.272;2023-04-15T15:05:00;16.50;93.80
22130;DHT22;11231;50.746;4.272;2023-04-15T15:07:26;16.60;93.70
22130;DHT22;11231;50.746;4.272;2023-04-15T15:09:52;16.40;93.10
22130;DHT22;11231;50.746;4.272;2023-04-15T15:12:18;16.50;93.80
22130;DHT22;11231;50.746;4.272;2023-04-15T15:14:43;16.30;94.90
22130;DHT22;11231;50.746;4.272;2023-04-15T15:17:09;16.00;94.40
22130;DHT22;11231;50.746;4.272;2023-04-15T15:19:35;15.80;96.20
22130;DHT22;11231;50.746;4.272;2023-04-15T15:22:02;15.80;97.10
22130;DHT22;11231;50.746;4.272;2023-04-15T15:24:28;15.90;97.30
22130;DHT22;11231;50.746;4.272;2023-04-15T15:26:54;16.10;96.70
22130;DHT22;11231;50.746;4.272;2023-04-15T15:29:20;16.30;98.60
22130;DHT22;11231;50.746;4.272;2023-04-15T15:31:45;16.40;98.40
22130;DHT22;11231;50.746;4.272;2023-04-15T15:34:11;16.50;98.50
22130;DHT22;11231;50.746;4.272;2023-04-15T15:36:36;16.60;99.90
22130;DHT22;11231;50.746;4.272;2023-04-15T15:39:02;16.50;99.90
22130;DHT22;11231;50.746;4.272;2023-04-15T15:41:28;16.50;99.90
22130;DHT22;11231;50.746;4.272;2023-04-15T15:43:54;16.40;99.90
22130;DHT22;11231;50.746;4.272;2023-04-15T15:46:20;16.10;99.90
22130;DHT22;11231;50.746;4.272;2023-04-15T15:48:45;15.80;99.90
22130;DHT22;11231;50.746;4.272;2023-04-15T15:51:11;15.70;99.90
22130;DHT22;11231;50.746;4.272;2023-04-15T15:53:37;15.70;99.90
22130;DHT22;11231;50.746;4.272;2023-04-15T15:56:03;15.80;99.90
22130;DHT22;11231;50.746;4.272;2023-04-15T15:58:30;16.00;99.90
22130;DHT22;11231;50.746;4.272;2023-04-15T16:00:55;15.90;99.90